This is the latest recevied weather packets stored in our database for station/object VE6HFD-WX. If no packets are shown the sender has not sent any weather packets the latest 10 day(s).
| Time | Temp. | Humidity | Pressure | Rain* | Wind** | Luminosity | Snow |
|---|---|---|---|---|---|---|---|
| 1777531990 | 2.78° C | 67% | 1022.2 hPa | 0 mm | - | - | - |
| 1777531689 | 2.78° C | 68% | 1022.2 hPa | 0 mm | - | - | - |
| 1777531360 | 2.22° C | 69% | 1022.3 hPa | 0 mm | - | - | - |
| 1777531059 | 2.22° C | 69% | 1022.3 hPa | 0 mm | - | - | - |
| 1777530760 | 2.22° C | 69% | 1022.1 hPa | 0 mm | - | - | - |
| 1777530459 | 2.22° C | 68% | 1022.2 hPa | 0 mm | - | - | - |
| 1777530159 | 2.78° C | 67% | 1022.2 hPa | 0 mm | - | - | - |
| 1777529830 | 2.78° C | 67% | 1022.2 hPa | 0 mm | - | - | - |
| 1777529530 | 3.33° C | 65% | 1022.1 hPa | 0 mm | - | - | - |
| 1777529230 | 3.33° C | 64% | 1022.2 hPa | 0 mm | - | - | - |
| 1777528900 | 3.33° C | 63% | 1022.2 hPa | 0 mm | - | - | - |
| 1777528599 | 3.89° C | 62% | 1022.1 hPa | 0 mm | - | - | - |
| 1777528270 | 3.89° C | 62% | 1022.1 hPa | 0 mm | - | - | - |
| 1777527940 | 3.89° C | 61% | 1022.2 hPa | 0 mm | - | - | - |
| 1777527639 | 3.89° C | 60% | 1022.1 hPa | 0 mm | - | - | - |
| 1777527340 | 4.44° C | 58% | 1022.1 hPa | 0 mm | - | - | - |
| 1777527010 | 4.44° C | 58% | 1022.1 hPa | 0 mm | - | - | - |
| 1777526679 | 5° C | 57% | 1022.2 hPa | 0 mm | - | - | - |
| 1777526379 | 5° C | 56% | 1022.2 hPa | 0 mm | - | - | - |
| 1777526080 | 5° C | 56% | 1022.2 hPa | 0 mm | - | - | - |
| 1777525750 | 5.56° C | 53% | 1022.2 hPa | 0 mm | - | - | - |
| 1777525419 | 5.56° C | 56% | 1022.2 hPa | 0 mm | - | - | - |
| 1777525120 | 6.67° C | 53% | 1022.2 hPa | 0 mm | - | - | - |
| 1777524790 | 6.67° C | 51% | 1022.2 hPa | 0 mm | - | - | - |
| 1777524490 | 7.78° C | 46% | 1022.2 hPa | 0 mm | - | - | - |
* Rain latest hour (hover to see other rain measurements)
** Current wind speed in m/s (hover to see current wind gust speed)